createdAt,value
2022-07-28T00:01:28.052Z,748.10
2022-07-28T00:03:58.185Z,750.58
2022-07-28T00:06:26.650Z,747.10
2022-07-28T00:08:55.455Z,739.05
2022-07-28T00:11:24.024Z,745.55
2022-07-28T00:13:52.533Z,743.65
2022-07-28T00:16:21.509Z,738.60
2022-07-28T00:18:50.267Z,743.53
2022-07-28T00:21:20.308Z,742.63
2022-07-28T00:23:48.795Z,739.40
2022-07-28T00:26:17.255Z,729.38
2022-07-28T00:28:45.982Z,741.03
2022-07-28T00:31:14.681Z,741.45
2022-07-28T00:33:43.697Z,726.08
2022-07-28T00:36:13.332Z,740.58
2022-07-28T00:38:44.289Z,737.78
2022-07-28T00:41:14.658Z,723.95
2022-07-28T00:43:46.600Z,726.35
2022-07-28T00:46:19.218Z,728.30
2022-07-28T00:48:51.458Z,731.13
2022-07-28T00:51:22.722Z,734.13
2022-07-28T00:53:53.553Z,730.78
2022-07-28T00:56:22.730Z,727.60
2022-07-28T00:58:51.587Z,727.50
2022-07-28T01:01:21.500Z,732.38
2022-07-28T01:03:53.823Z,727.75
2022-07-28T01:06:42.096Z,718.65
2022-07-28T01:09:24.828Z,733.20
2022-07-28T01:12:00.347Z,735.88
2022-07-28T01:14:36.393Z,743.08
2022-07-28T01:17:11.198Z,728.88
2022-07-28T01:19:44.857Z,728.78
2022-07-28T01:22:18.388Z,739.75
2022-07-28T01:25:02.688Z,732.05
2022-07-28T01:27:44.943Z,741.90
2022-07-28T01:30:34.750Z,740.63
2022-07-28T01:33:05.435Z,742.75
2022-07-28T01:35:41.798Z,742.53
2022-07-28T01:38:12.185Z,745.22
2022-07-28T01:40:44.445Z,738.60
2022-07-28T01:43:18.044Z,744.38
2022-07-28T01:45:48.364Z,739.95
2022-07-28T01:48:19.371Z,724.85
2022-07-28T01:50:50.205Z,724.50
2022-07-28T01:53:19.677Z,720.95
2022-07-28T01:55:51.191Z,726.35
2022-07-28T01:58:23.524Z,717.72
2022-07-28T02:00:55.082Z,729.72
2022-07-28T02:03:24.930Z,720.08
2022-07-28T02:05:56.809Z,722.58
2022-07-28T02:08:26.968Z,731.28
2022-07-28T02:11:14.623Z,725.00
2022-07-28T02:13:44.093Z,720.55
2022-07-28T02:16:17.021Z,713.63
2022-07-28T02:18:47.261Z,728.05
2022-07-28T02:21:17.378Z,727.00
2022-07-28T02:23:49.453Z,726.20
2022-07-28T02:26:23.077Z,725.05
2022-07-28T02:28:55.530Z,716.63
2022-07-28T02:31:30.056Z,720.03
2022-07-28T02:34:02.451Z,718.72
2022-07-28T02:36:36.010Z,713.17
2022-07-28T02:39:08.830Z,718.38
2022-07-28T02:41:40.839Z,717.20
2022-07-28T02:44:15.743Z,710.40
2022-07-28T02:46:47.887Z,710.75
2022-07-28T02:49:22.554Z,717.78
2022-07-28T02:51:53.582Z,710.22
2022-07-28T02:54:24.233Z,713.47
2022-07-28T02:56:56.086Z,713.72
2022-07-28T02:59:25.253Z,707.55
2022-07-28T03:01:56.441Z,707.88
2022-07-28T03:04:40.488Z,707.03
2022-07-28T03:07:11.050Z,712.03
2022-07-28T03:09:41.835Z,716.85
2022-07-28T03:12:10.938Z,713.28
2022-07-28T03:14:40.035Z,714.70
2022-07-28T03:17:10.238Z,710.75
2022-07-28T03:19:39.252Z,714.60
2022-07-28T03:22:10.185Z,711.80
2022-07-28T03:24:40.617Z,714.10
2022-07-28T03:27:16.607Z,710.42
2022-07-28T03:29:50.655Z,704.20
2022-07-28T03:32:22.915Z,709.92
2022-07-28T03:34:52.603Z,712.38
2022-07-28T03:37:33.450Z,700.58
2022-07-28T03:40:02.893Z,706.72
2022-07-28T03:42:34.513Z,706.03
2022-07-28T03:45:03.740Z,710.88
2022-07-28T03:47:33.870Z,710.00
2022-07-28T03:50:02.635Z,717.53
2022-07-28T03:52:31.202Z,706.95
2022-07-28T03:54:59.665Z,702.92
2022-07-28T03:57:28.174Z,697.30
2022-07-28T03:59:56.716Z,706.10
2022-07-28T04:05:22.305Z,700.63
2022-07-28T04:07:50.741Z,699.63
2022-07-28T04:10:19.547Z,699.28
2022-07-28T04:12:49.852Z,701.42
2022-07-28T04:15:19.738Z,710.00
2022-07-28T04:17:49.730Z,704.00
2022-07-28T04:20:19.130Z,702.13
2022-07-28T04:22:50.012Z,709.10
2022-07-28T04:25:22.127Z,713.97
2022-07-28T04:27:50.868Z,710.30
2022-07-28T04:30:21.541Z,709.33
2022-07-28T04:32:51.933Z,703.78
2022-07-28T04:35:20.800Z,699.42
2022-07-28T04:37:51.054Z,708.20
2022-07-28T04:40:19.622Z,706.25
2022-07-28T04:42:48.064Z,702.33
2022-07-28T04:45:16.591Z,705.35
2022-07-28T04:47:45.140Z,706.10
2022-07-28T04:50:16.143Z,708.13
2022-07-28T04:52:49.412Z,701.17
2022-07-28T04:55:19.886Z,712.03
2022-07-28T04:57:48.733Z,711.00
2022-07-28T05:00:17.831Z,706.38
2022-07-28T05:02:49.602Z,702.03
2022-07-28T05:05:18.225Z,706.83
2022-07-28T05:07:46.781Z,709.58
2022-07-28T05:10:15.584Z,707.35
2022-07-28T05:12:49.515Z,705.50
2022-07-28T05:15:17.999Z,703.72
2022-07-28T05:17:46.957Z,704.42
2022-07-28T05:20:15.666Z,702.90
2022-07-28T05:22:45.457Z,710.88
2022-07-28T05:25:18.578Z,699.50
2022-07-28T05:27:49.433Z,705.20
2022-07-28T05:30:19.363Z,705.85
2022-07-28T05:32:49.227Z,705.50
2022-07-28T05:35:18.197Z,703.50
2022-07-28T05:37:46.665Z,698.65
2022-07-28T05:40:16.476Z,707.15
2022-07-28T05:42:47.726Z,703.28
2022-07-28T05:45:18.043Z,701.30
2022-07-28T05:47:49.310Z,698.78
2022-07-28T05:50:18.847Z,708.15
2022-07-28T05:52:49.439Z,711.47
2022-07-28T05:55:18.569Z,699.08
2022-07-28T05:57:48.307Z,702.15
2022-07-28T06:00:20.387Z,700.45
2022-07-28T06:02:50.183Z,705.03
2022-07-28T06:05:21.062Z,712.08
2022-07-28T06:07:50.670Z,710.85
2022-07-28T06:10:21.398Z,704.00
2022-07-28T06:12:51.341Z,709.55
2022-07-28T06:15:22.747Z,720.85
2022-07-28T06:17:52.764Z,721.05
2022-07-28T06:20:22.188Z,714.33
2022-07-28T06:22:52.348Z,716.50
2022-07-28T06:25:22.733Z,719.08
2022-07-28T06:27:53.623Z,715.78
2022-07-28T06:30:24.396Z,714.40
2022-07-28T06:32:53.507Z,720.75
2022-07-28T06:35:22.833Z,722.97
2022-07-28T06:37:52.486Z,741.30
2022-07-28T06:40:23.097Z,736.05
2022-07-28T06:42:51.974Z,743.88
2022-07-28T06:45:23.670Z,755.28
2022-07-28T06:47:52.413Z,750.75
2022-07-28T06:50:24.739Z,764.10
2022-07-28T06:52:56.208Z,769.72
2022-07-28T06:55:25.178Z,764.40
2022-07-28T06:57:54.624Z,764.55
2022-07-28T07:00:24.694Z,779.20
2022-07-28T07:02:53.613Z,774.33
2022-07-28T07:05:22.178Z,784.53
2022-07-28T07:07:50.693Z,779.65
2022-07-28T07:10:19.250Z,768.33
2022-07-28T07:12:47.785Z,773.15
2022-07-28T07:15:16.284Z,778.10
2022-07-28T07:17:46.200Z,794.78
2022-07-28T07:20:17.174Z,820.42
2022-07-28T07:22:48.939Z,876.85
2022-07-28T07:25:19.631Z,967.05
2022-07-28T07:27:48.264Z,898.30
2022-07-28T07:30:17.688Z,930.83
2022-07-28T07:32:47.571Z,951.13
2022-07-28T07:35:16.032Z,971.35
2022-07-28T07:37:44.800Z,972.85
2022-07-28T07:40:13.428Z,993.72
2022-07-28T07:42:42.308Z,990.60
2022-07-28T07:45:11.345Z,1002.95
2022-07-28T07:47:39.889Z,972.25
2022-07-28T07:50:10.579Z,942.22
2022-07-28T07:52:39.112Z,909.88
2022-07-28T07:55:08.738Z,894.72
2022-07-28T07:57:37.815Z,897.20
2022-07-28T08:00:07.164Z,898.75
2022-07-28T08:02:35.733Z,896.95
2022-07-28T08:05:04.265Z,924.38
2022-07-28T08:07:34.226Z,947.33
2022-07-28T08:10:03.315Z,933.38
2022-07-28T08:12:31.874Z,880.97
2022-07-28T08:15:00.484Z,918.08
2022-07-28T08:17:29.015Z,892.15
2022-07-28T08:19:58.296Z,927.05
2022-07-28T08:22:27.156Z,927.15
2022-07-28T08:24:57.391Z,923.55
2022-07-28T08:27:26.074Z,933.95
2022-07-28T08:29:55.047Z,1025.75
2022-07-28T08:32:23.623Z,970.53
2022-07-28T08:35:00.117Z,1001.70
2022-07-28T08:37:40.199Z,1010.28
2022-07-28T08:40:14.921Z,979.45
2022-07-28T08:42:51.955Z,1007.53
2022-07-28T08:45:22.253Z,1087.93
2022-07-28T08:48:07.728Z,1050.28
2022-07-28T08:50:37.017Z,1074.43
2022-07-28T08:53:07.929Z,1066.88
2022-07-28T08:55:38.966Z,1087.65
2022-07-28T08:58:08.707Z,1072.85
2022-07-28T09:00:37.328Z,1124.88
2022-07-28T09:03:07.152Z,1090.72
2022-07-28T09:05:37.269Z,1046.40
2022-07-28T09:08:06.864Z,1068.05
2022-07-28T09:10:35.604Z,1093.85
2022-07-28T09:13:05.517Z,1113.05
2022-07-28T09:15:34.805Z,1106.60
2022-07-28T09:18:04.036Z,1085.15
2022-07-28T09:20:32.612Z,1050.05
2022-07-28T09:23:02.879Z,1062.13
2022-07-28T09:25:32.222Z,1042.13
2022-07-28T09:28:09.531Z,1025.68
2022-07-28T09:30:53.232Z,1033.22
2022-07-28T09:33:42.644Z,1049.60
2022-07-28T09:36:19.266Z,1040.45
2022-07-28T09:38:48.819Z,1063.95
2022-07-28T09:41:21.990Z,1081.28
2022-07-28T09:43:56.003Z,1106.47
2022-07-28T09:46:29.166Z,1107.72
2022-07-28T09:49:00.841Z,1108.20
2022-07-28T09:51:31.333Z,1096.97
2022-07-28T09:54:11.859Z,1051.28
2022-07-28T09:56:42.141Z,1053.97
2022-07-28T09:59:14.980Z,1088.97
2022-07-28T10:01:55.286Z,1079.10
2022-07-28T10:04:32.952Z,1086.00
2022-07-28T10:07:10.075Z,1063.95
2022-07-28T10:09:40.103Z,1063.00
2022-07-28T10:12:20.554Z,1087.43
2022-07-28T10:14:53.041Z,1083.25
2022-07-28T10:17:39.801Z,1110.57
2022-07-28T10:20:09.845Z,910.15
2022-07-28T10:22:43.418Z,1139.88
2022-07-28T10:25:13.485Z,1118.20
2022-07-28T10:27:43.251Z,1129.57
2022-07-28T10:30:15.298Z,1120.75
2022-07-28T10:32:46.120Z,1126.07
2022-07-28T10:35:15.802Z,1105.65
2022-07-28T10:37:53.094Z,1094.97
2022-07-28T10:40:26.369Z,1070.63
2022-07-28T10:42:57.060Z,1057.07
2022-07-28T10:45:47.901Z,1075.43
2022-07-28T10:48:17.842Z,1060.82
2022-07-28T10:50:46.557Z,1075.20
2022-07-28T10:53:31.003Z,1079.65
2022-07-28T10:56:03.889Z,1106.22
2022-07-28T10:58:46.048Z,1100.10
2022-07-28T11:01:48.274Z,1115.75
2022-07-28T11:04:52.452Z,1108.30
2022-07-28T11:07:22.458Z,1084.68
2022-07-28T11:09:52.325Z,1061.70
2022-07-28T11:12:48.370Z,1048.10
2022-07-28T11:15:34.700Z,1020.97
2022-07-28T11:18:09.234Z,1034.40
2022-07-28T11:21:07.817Z,1034.18
2022-07-28T11:23:48.626Z,1019.50
2022-07-28T11:26:37.552Z,1036.28
2022-07-28T11:29:16.207Z,1030.43
2022-07-28T11:32:04.875Z,1038.88
2022-07-28T11:35:07.015Z,1037.15
2022-07-28T11:38:11.277Z,1016.20
2022-07-28T11:40:44.782Z,1060.57
2022-07-28T11:43:37.690Z,1062.68
2022-07-28T11:46:37.708Z,1079.88
2022-07-28T11:49:25.245Z,1079.07
2022-07-28T11:52:27.028Z,1068.75
2022-07-28T11:54:59.270Z,1057.40
2022-07-28T11:57:29.301Z,1051.22
2022-07-28T12:00:03.651Z,1023.63
2022-07-28T12:02:36.392Z,987.15
2022-07-28T12:05:11.517Z,991.00
2022-07-28T12:07:48.636Z,1016.03
2022-07-28T12:10:53.816Z,1020.67
2022-07-28T12:13:28.932Z,999.63
2022-07-28T12:15:58.157Z,983.58
2022-07-28T12:18:26.672Z,1019.20
2022-07-28T12:20:55.934Z,1009.53
2022-07-28T12:23:39.387Z,1032.75
2022-07-28T12:26:31.780Z,1010.13
2022-07-28T12:29:01.403Z,1014.22
2022-07-28T12:31:33.302Z,968.00
2022-07-28T12:34:02.329Z,1038.15
2022-07-28T12:36:31.216Z,1043.65
2022-07-28T12:39:01.621Z,1009.83
2022-07-28T12:41:35.824Z,1027.07
2022-07-28T12:44:06.946Z,1034.75
2022-07-28T12:46:35.472Z,976.70
2022-07-28T12:49:04.334Z,988.80
2022-07-28T12:51:34.560Z,1001.92
2022-07-28T12:54:03.547Z,963.50
2022-07-28T12:56:45.858Z,974.70
2022-07-28T12:59:14.870Z,962.38
2022-07-28T13:01:49.002Z,960.50
2022-07-28T13:04:18.351Z,946.03
2022-07-28T13:06:56.987Z,975.38
2022-07-28T13:09:32.916Z,985.47
2022-07-28T13:12:14.816Z,990.20
2022-07-28T13:14:44.492Z,970.20
2022-07-28T13:17:13.321Z,987.80
2022-07-28T13:19:42.026Z,1004.90
2022-07-28T13:22:10.529Z,1002.17
2022-07-28T13:24:39.280Z,1000.85
2022-07-28T13:27:09.367Z,989.03
2022-07-28T13:29:37.905Z,997.70
2022-07-28T13:32:07.043Z,999.60
2022-07-28T13:34:35.725Z,991.05
2022-07-28T13:37:04.811Z,1004.40
2022-07-28T13:39:33.272Z,969.10
2022-07-28T13:42:05.733Z,985.60
2022-07-28T13:44:37.636Z,953.53
2022-07-28T13:47:06.931Z,976.95
2022-07-28T13:49:37.511Z,990.83
2022-07-28T13:52:13.187Z,976.30
2022-07-28T13:54:41.912Z,946.50
2022-07-28T13:57:11.042Z,975.10
2022-07-28T13:59:43.961Z,981.97
2022-07-28T14:02:15.420Z,980.05
2022-07-28T14:04:45.716Z,940.95
2022-07-28T14:07:14.755Z,984.50
2022-07-28T14:09:51.434Z,972.95
2022-07-28T14:12:20.491Z,974.88
2022-07-28T14:14:50.422Z,969.22
2022-07-28T14:20:13.058Z,957.22
2022-07-28T14:22:41.984Z,936.47
2022-07-28T14:25:11.798Z,962.50
2022-07-28T14:27:48.101Z,963.55
2022-07-28T14:30:18.238Z,944.10
2022-07-28T14:32:46.749Z,957.65
2022-07-28T14:35:15.588Z,956.17
2022-07-28T14:40:33.338Z,953.80
2022-07-28T14:43:08.997Z,955.55
2022-07-28T14:46:05.470Z,951.65
2022-07-28T14:48:27.892Z,948.03
2022-07-28T14:50:57.291Z,954.42
2022-07-28T14:53:27.668Z,945.30
2022-07-28T14:55:57.243Z,956.45
2022-07-28T14:58:25.898Z,954.90
2022-07-28T15:00:56.121Z,957.17
2022-07-28T15:03:27.018Z,942.63
2022-07-28T15:05:55.484Z,942.92
2022-07-28T15:08:29.117Z,920.20
2022-07-28T15:10:58.981Z,919.97
2022-07-28T15:13:27.681Z,935.67
2022-07-28T15:16:00.170Z,939.60
2022-07-28T15:18:29.043Z,950.45
2022-07-28T15:20:57.490Z,953.90
2022-07-28T15:23:26.011Z,944.45
2022-07-28T15:25:56.223Z,935.92
2022-07-28T15:28:25.163Z,952.60
2022-07-28T15:30:54.623Z,918.80
2022-07-28T15:33:25.600Z,919.35
2022-07-28T15:35:58.549Z,939.25
2022-07-28T15:38:29.604Z,937.88
2022-07-28T15:41:01.095Z,950.65
2022-07-28T15:43:30.429Z,950.45
2022-07-28T15:45:59.202Z,920.22
2022-07-28T15:48:29.451Z,946.97
2022-07-28T15:50:57.931Z,939.97
2022-07-28T15:53:26.393Z,937.63
2022-07-28T15:55:55.111Z,941.38
2022-07-28T15:58:27.459Z,947.95
2022-07-28T16:00:56.147Z,944.42
2022-07-28T16:03:29.528Z,915.47
2022-07-28T16:05:59.145Z,906.17
2022-07-28T16:08:28.024Z,912.65
2022-07-28T16:10:56.518Z,936.85
2022-07-28T16:13:35.623Z,945.58
2022-07-28T16:16:10.528Z,901.20
2022-07-28T16:18:43.395Z,934.08
2022-07-28T16:21:12.319Z,933.35
2022-07-28T16:23:40.778Z,921.30
2022-07-28T16:26:09.572Z,907.70
2022-07-28T16:28:38.137Z,894.15
2022-07-28T16:31:07.103Z,931.80
2022-07-28T16:33:35.916Z,917.70
2022-07-28T16:36:06.574Z,893.13
2022-07-28T16:38:35.283Z,920.15
2022-07-28T16:41:03.777Z,900.17
2022-07-28T16:43:33.167Z,924.90
2022-07-28T16:46:02.799Z,905.85
2022-07-28T16:48:31.347Z,894.30
2022-07-28T16:50:59.998Z,907.30
2022-07-28T16:53:30.570Z,912.05
2022-07-28T16:55:59.172Z,901.13
2022-07-28T16:58:27.703Z,897.80
2022-07-28T17:00:56.370Z,863.60
2022-07-28T17:03:27.554Z,899.30
2022-07-28T17:05:56.136Z,882.13
2022-07-28T17:08:24.809Z,889.35
2022-07-28T17:10:54.779Z,891.38
2022-07-28T17:13:25.787Z,855.40
2022-07-28T17:15:54.613Z,892.10
2022-07-28T17:18:23.419Z,888.13
2022-07-28T17:20:51.944Z,854.63
2022-07-28T17:23:20.464Z,887.70
2022-07-28T17:28:38.852Z,889.20
2022-07-28T17:31:07.407Z,892.53
2022-07-28T17:33:36.191Z,887.55
2022-07-28T17:36:05.202Z,877.00
2022-07-28T17:38:33.692Z,872.20
2022-07-28T17:41:04.318Z,884.88
2022-07-28T17:43:33.080Z,880.30
2022-07-28T17:46:08.453Z,865.53
2022-07-28T17:48:39.185Z,874.28
2022-07-28T17:51:07.719Z,871.28
2022-07-28T17:53:39.233Z,831.67
2022-07-28T17:56:09.177Z,870.63
2022-07-28T17:58:38.787Z,861.60
2022-07-28T18:01:12.583Z,828.05
2022-07-28T18:03:58.660Z,850.58
2022-07-28T18:06:34.220Z,856.85
2022-07-28T18:09:05.562Z,848.70
2022-07-28T18:11:37.426Z,859.22
2022-07-28T18:14:23.853Z,854.42
2022-07-28T18:16:53.780Z,812.05
2022-07-28T18:19:22.387Z,857.45
2022-07-28T18:21:50.967Z,851.53
2022-07-28T18:24:22.200Z,847.72
2022-07-28T18:26:51.560Z,839.08
2022-07-28T18:29:21.045Z,851.15
2022-07-28T18:31:50.732Z,856.80
2022-07-28T18:34:23.629Z,836.75
2022-07-28T18:36:53.993Z,836.67
2022-07-28T18:39:22.888Z,856.47
2022-07-28T18:41:51.427Z,837.03
2022-07-28T18:44:20.755Z,841.10
2022-07-28T18:46:50.194Z,842.17
2022-07-28T18:49:21.728Z,849.67
2022-07-28T18:51:50.605Z,850.05
2022-07-28T18:54:27.037Z,848.58
2022-07-28T18:56:56.897Z,845.03
2022-07-28T18:59:26.321Z,843.38
2022-07-28T19:01:54.881Z,817.00
2022-07-28T19:04:24.850Z,831.92
2022-07-28T19:06:53.301Z,829.17
2022-07-28T19:09:21.950Z,781.88
2022-07-28T19:11:50.434Z,817.45
2022-07-28T19:14:19.362Z,809.78
2022-07-28T19:16:48.242Z,816.42
2022-07-28T19:19:16.772Z,798.42
2022-07-28T19:21:46.786Z,807.78
2022-07-28T19:24:15.934Z,786.20
2022-07-28T19:26:46.991Z,786.83
2022-07-28T19:29:15.457Z,772.65
2022-07-28T19:31:44.148Z,780.33
2022-07-28T19:34:13.119Z,783.22
2022-07-28T19:36:41.974Z,776.42
2022-07-28T19:39:12.404Z,779.90
2022-07-28T19:41:41.399Z,776.92
2022-07-28T19:44:10.783Z,781.60
2022-07-28T19:46:39.654Z,771.30
2022-07-28T19:49:09.100Z,774.15
2022-07-28T19:51:37.702Z,775.42
2022-07-28T19:54:06.565Z,775.20
2022-07-28T19:56:37.453Z,763.90
2022-07-28T19:59:05.950Z,763.97
2022-07-28T20:01:34.819Z,776.08
2022-07-28T20:04:05.442Z,768.08
2022-07-28T20:06:34.560Z,768.40
2022-07-28T20:09:03.777Z,768.97
2022-07-28T20:11:33.973Z,771.95
2022-07-28T20:14:04.126Z,770.63
2022-07-28T20:16:32.622Z,779.15
2022-07-28T20:19:01.558Z,786.55
2022-07-28T20:21:30.023Z,779.85
2022-07-28T20:24:08.616Z,778.08
2022-07-28T20:26:37.133Z,779.10
2022-07-28T20:29:06.985Z,776.50
2022-07-28T20:31:36.966Z,778.67
2022-07-28T20:34:07.010Z,767.45
2022-07-28T20:36:36.039Z,774.70
2022-07-28T20:39:21.104Z,767.22
2022-07-28T20:41:53.028Z,767.78
2022-07-28T20:44:30.570Z,776.58
2022-07-28T20:47:00.793Z,773.25
2022-07-28T20:49:30.015Z,770.53
2022-07-28T20:51:58.738Z,766.80
2022-07-28T20:54:27.758Z,772.35
2022-07-28T20:56:56.475Z,770.00
2022-07-28T20:59:27.912Z,765.10
2022-07-28T21:01:57.023Z,773.55
2022-07-28T21:04:26.549Z,773.35
2022-07-28T21:07:01.800Z,772.75
2022-07-28T21:09:31.064Z,769.25
2022-07-28T21:12:00.070Z,770.42
2022-07-28T21:14:32.388Z,772.47
2022-07-28T21:17:01.020Z,770.60
2022-07-28T21:19:29.601Z,767.65
2022-07-28T21:21:58.171Z,767.53
2022-07-28T21:24:26.764Z,765.22
2022-07-28T21:26:55.267Z,768.70
2022-07-28T21:32:04.930Z,772.42
2022-07-28T21:34:36.094Z,772.83
2022-07-28T21:37:05.890Z,775.30
2022-07-28T21:39:35.980Z,769.63
2022-07-28T21:42:07.760Z,764.92
2022-07-28T21:44:36.878Z,769.53
2022-07-28T21:47:07.177Z,773.20
2022-07-28T21:49:36.043Z,769.75
2022-07-28T21:52:04.714Z,768.80
2022-07-28T21:54:33.174Z,774.58
2022-07-28T21:57:01.701Z,773.38
2022-07-28T21:59:30.177Z,768.88
2022-07-28T22:01:58.662Z,759.65
2022-07-28T22:04:28.856Z,764.72
2022-07-28T22:06:57.382Z,773.08
2022-07-28T22:09:26.048Z,759.28
2022-07-28T22:11:54.594Z,770.50
2022-07-28T22:14:25.614Z,765.38
2022-07-28T22:16:54.442Z,769.40
2022-07-28T22:19:23.092Z,763.40
2022-07-28T22:21:54.147Z,767.50
2022-07-28T22:24:22.840Z,765.30
2022-07-28T22:26:51.587Z,756.80
2022-07-28T22:29:20.044Z,762.45
2022-07-28T22:31:48.623Z,765.53
2022-07-28T22:34:17.535Z,762.22
2022-07-28T22:36:46.301Z,763.90
2022-07-28T22:39:16.255Z,753.83
2022-07-28T22:41:46.918Z,765.33
2022-07-28T22:44:15.991Z,760.33
2022-07-28T22:46:44.937Z,763.03
2022-07-28T22:49:13.821Z,761.83
2022-07-28T22:51:46.443Z,762.85
2022-07-28T22:54:21.593Z,764.08
2022-07-28T22:57:13.348Z,763.55
2022-07-28T22:59:42.530Z,758.60
2022-07-28T23:02:16.045Z,746.78
2022-07-28T23:04:49.612Z,760.00
2022-07-28T23:07:20.248Z,759.20
2022-07-28T23:10:14.266Z,759.47
2022-07-28T23:12:42.810Z,755.63
2022-07-28T23:15:11.270Z,762.20
2022-07-28T23:17:39.715Z,760.72
2022-07-28T23:20:08.854Z,763.55
2022-07-28T23:22:38.088Z,755.90
2022-07-28T23:25:07.326Z,762.35
2022-07-28T23:27:37.443Z,746.05
2022-07-28T23:30:07.118Z,755.63
2022-07-28T23:32:35.639Z,747.47
2022-07-28T23:35:05.909Z,761.38
2022-07-28T23:37:35.190Z,753.88
2022-07-28T23:40:05.278Z,752.90
2022-07-28T23:42:33.769Z,757.85
2022-07-28T23:45:05.934Z,756.70
2022-07-28T23:47:34.590Z,752.35
2022-07-28T23:50:03.527Z,747.72
2022-07-28T23:52:32.349Z,757.72
2022-07-28T23:55:00.895Z,747.70
2022-07-28T23:57:30.833Z,752.90
